createdAt,value
2022-12-24T00:02:21.146Z,96710.25
2022-12-24T00:04:47.789Z,96729.88
2022-12-24T00:07:14.467Z,96756.31
2022-12-24T00:09:40.982Z,96772.41
2022-12-24T00:12:07.739Z,96812.81
2022-12-24T00:14:34.306Z,96774.69
2022-12-24T00:17:01.010Z,96776.41
2022-12-24T00:19:27.549Z,96832.41
2022-12-24T00:21:54.191Z,96744.59
2022-12-24T00:24:20.756Z,96829.03
2022-12-24T00:26:47.305Z,96659.97
2022-12-24T00:29:13.906Z,96840.25
2022-12-24T00:31:40.429Z,96795.41
2022-12-24T00:34:08.664Z,96646.06
2022-12-24T00:36:35.231Z,96766.06
2022-12-24T00:39:01.921Z,96725.53
2022-12-24T00:41:31.040Z,96813.47
2022-12-24T00:44:02.350Z,96861.19
2022-12-24T00:46:30.205Z,96639.47
2022-12-24T00:48:57.129Z,96745.56
2022-12-24T00:51:23.913Z,96657.53
2022-12-24T00:53:50.544Z,96710.13
2022-12-24T00:56:17.587Z,96696.56
2022-12-24T00:58:44.213Z,96782.50
2022-12-24T01:01:10.858Z,96598.16
2022-12-24T01:03:37.569Z,96731.47
2022-12-24T01:06:09.167Z,96773.69
2022-12-24T01:08:35.732Z,96742.75
2022-12-24T01:11:03.011Z,96816.09
2022-12-24T01:13:29.693Z,96762.69
2022-12-24T01:15:56.278Z,96762.75
2022-12-24T01:18:23.041Z,96834.31
2022-12-24T01:20:59.619Z,96797.22
2022-12-24T01:23:26.579Z,96755.75
2022-12-24T01:25:53.121Z,96814.31
2022-12-24T01:28:20.406Z,96748.81
2022-12-24T01:30:47.375Z,96801.13
2022-12-24T01:33:14.049Z,96841.44
2022-12-24T01:35:43.669Z,96801.00
2022-12-24T01:38:11.835Z,96810.56
2022-12-24T01:40:58.061Z,96827.69
2022-12-24T01:43:26.384Z,96772.47
2022-12-24T01:46:07.147Z,96690.56
2022-12-24T01:48:48.016Z,96755.19
2022-12-24T01:51:14.484Z,96907.94
2022-12-24T01:53:42.153Z,96795.69
2022-12-24T01:56:08.738Z,96881.75
2022-12-24T01:58:35.380Z,96910.19
2022-12-24T02:01:02.062Z,96885.97
2022-12-24T02:03:28.782Z,96871.25
2022-12-24T02:05:56.342Z,96910.84
2022-12-24T02:08:22.963Z,96837.38
2022-12-24T02:10:49.634Z,96834.63
2022-12-24T02:13:17.951Z,96773.34
2022-12-24T02:15:50.507Z,96964.13
2022-12-24T02:18:34.404Z,96860.19
2022-12-24T02:21:00.824Z,96978.56
2022-12-24T02:23:41.907Z,96889.38
2022-12-24T02:26:24.702Z,96927.22
2022-12-24T02:29:26.726Z,96858.16
2022-12-24T02:32:10.122Z,96888.31
2022-12-24T02:34:42.695Z,96944.31
2022-12-24T02:37:18.039Z,96964.50
2022-12-24T02:39:49.354Z,96923.81
2022-12-24T02:42:17.490Z,96927.16
2022-12-24T02:44:49.246Z,96954.00
2022-12-24T02:47:15.829Z,96946.00
2022-12-24T02:49:44.515Z,96880.50
2022-12-24T02:52:40.176Z,97004.06
2022-12-24T02:55:32.498Z,97011.72
2022-12-24T02:58:05.031Z,96913.31
2022-12-24T03:00:53.933Z,97010.03
2022-12-24T03:03:38.351Z,97008.28
2022-12-24T03:06:10.662Z,96983.09
2022-12-24T03:08:47.944Z,96932.00
2022-12-24T03:11:15.434Z,97003.41
2022-12-24T03:13:42.668Z,96626.16
2022-12-24T03:16:11.423Z,96990.34
2022-12-24T03:18:39.028Z,96878.97
2022-12-24T03:21:32.113Z,97041.50
2022-12-24T03:23:58.718Z,96891.06
2022-12-24T03:26:25.231Z,96887.50
2022-12-24T03:28:51.802Z,96966.28
2022-12-24T03:31:18.756Z,96878.66
2022-12-24T03:33:45.670Z,97010.00
2022-12-24T03:36:12.325Z,96944.16
2022-12-24T03:38:38.947Z,96956.25
2022-12-24T03:41:05.827Z,96913.88
2022-12-24T03:43:32.519Z,96964.06
2022-12-24T03:45:59.165Z,96865.47
2022-12-24T03:48:32.346Z,96958.50
2022-12-24T03:50:59.335Z,96948.38
2022-12-24T03:53:25.876Z,97087.44
2022-12-24T03:55:52.390Z,96845.69
2022-12-24T03:58:18.938Z,96875.50
2022-12-24T04:00:45.574Z,96989.34
2022-12-24T04:03:12.288Z,96979.84
2022-12-24T04:05:38.915Z,96959.03
2022-12-24T04:08:05.598Z,96872.47
2022-12-24T04:10:32.204Z,97048.06
2022-12-24T04:12:58.852Z,97049.81
2022-12-24T04:15:25.426Z,96941.72
2022-12-24T04:17:52.000Z,97102.50
2022-12-24T04:20:18.786Z,97053.16
2022-12-24T04:22:45.344Z,97072.84
2022-12-24T04:25:11.976Z,96994.25
2022-12-24T04:27:38.613Z,97105.47
2022-12-24T04:30:05.805Z,97033.91
2022-12-24T04:32:32.480Z,96900.94
2022-12-24T04:34:59.064Z,97014.09
2022-12-24T04:37:25.578Z,96942.66
2022-12-24T04:39:52.190Z,97033.19
2022-12-24T04:42:20.070Z,97042.59
2022-12-24T04:44:46.578Z,97123.09
2022-12-24T04:47:13.206Z,97056.34
2022-12-24T04:49:39.751Z,97094.13
2022-12-24T04:52:06.349Z,96982.31
2022-12-24T04:54:32.987Z,97088.81
2022-12-24T04:56:59.575Z,97152.91
2022-12-24T04:59:26.047Z,97129.09
2022-12-24T05:01:52.725Z,97115.50
2022-12-24T05:04:19.416Z,97069.69
2022-12-24T05:06:45.981Z,97076.41
2022-12-24T05:09:12.665Z,97047.44
2022-12-24T05:11:39.309Z,97048.00
2022-12-24T05:14:05.810Z,97103.72
2022-12-24T05:16:32.306Z,97077.72
2022-12-24T05:18:58.833Z,97051.63
2022-12-24T05:21:25.313Z,96935.97
2022-12-24T05:24:10.951Z,97082.91
2022-12-24T05:26:42.881Z,97017.19
2022-12-24T05:29:09.532Z,97076.81
2022-12-24T05:31:36.478Z,96993.59
2022-12-24T05:34:03.326Z,97150.19
2022-12-24T05:36:29.935Z,97109.16
2022-12-24T05:38:56.425Z,97083.13
2022-12-24T05:41:23.042Z,97111.66
2022-12-24T05:43:49.618Z,97054.78
2022-12-24T05:46:18.738Z,97135.63
2022-12-24T05:48:45.430Z,97106.47
2022-12-24T05:51:12.919Z,97069.38
2022-12-24T05:53:39.487Z,97045.19
2022-12-24T05:56:10.772Z,97072.97
2022-12-24T05:58:37.493Z,97095.13
2022-12-24T06:01:04.344Z,97102.00
2022-12-24T06:03:31.066Z,97126.09
2022-12-24T06:06:08.032Z,97101.19
2022-12-24T06:08:34.799Z,97115.78
2022-12-24T06:11:03.593Z,97090.13
2022-12-24T06:13:30.516Z,97072.72
2022-12-24T06:15:58.024Z,97013.56
2022-12-24T06:18:24.669Z,97007.22
2022-12-24T06:20:54.579Z,97046.72
2022-12-24T06:23:21.445Z,97150.47
2022-12-24T06:25:48.049Z,97047.41
2022-12-24T06:28:14.608Z,97096.75
2022-12-24T06:30:41.487Z,97025.84
2022-12-24T06:33:08.099Z,97076.75
2022-12-24T06:35:34.612Z,97102.28
2022-12-24T06:38:01.119Z,97093.94
2022-12-24T06:40:27.986Z,97027.84
2022-12-24T06:42:54.493Z,97079.75
2022-12-24T06:45:21.024Z,97212.66
2022-12-24T06:47:47.572Z,97101.50
2022-12-24T06:50:14.078Z,97159.84
2022-12-24T06:52:40.658Z,97083.19
2022-12-24T06:55:07.780Z,97067.63
2022-12-24T06:57:34.309Z,97231.13
2022-12-24T07:00:00.821Z,97103.06
2022-12-24T07:02:27.520Z,97149.47
2022-12-24T07:04:54.124Z,97092.19
2022-12-24T07:07:20.641Z,97111.31
2022-12-24T07:09:47.220Z,97187.28
2022-12-24T07:12:13.711Z,97203.38
2022-12-24T07:14:40.230Z,97233.78
2022-12-24T07:17:06.881Z,97199.91
2022-12-24T07:19:34.321Z,97193.81
2022-12-24T07:22:00.815Z,97194.75
2022-12-24T07:24:27.378Z,97278.31
2022-12-24T07:26:53.887Z,97259.44
2022-12-24T07:29:20.608Z,97239.88
2022-12-24T07:31:47.216Z,97197.94
2022-12-24T07:34:13.788Z,97173.41
2022-12-24T07:36:40.363Z,97290.53
2022-12-24T07:39:06.846Z,97176.78
2022-12-24T07:41:37.919Z,97160.28
2022-12-24T07:44:11.752Z,96975.91
2022-12-24T07:46:38.308Z,97224.28
2022-12-24T07:49:04.835Z,97285.41
2022-12-24T07:51:31.373Z,97271.88
2022-12-24T07:53:57.917Z,97172.34
2022-12-24T07:56:24.479Z,97100.91
2022-12-24T07:58:51.536Z,97221.63
2022-12-24T08:01:18.633Z,97218.84
2022-12-24T08:03:45.520Z,97252.50
2022-12-24T08:06:12.214Z,97275.22
2022-12-24T08:08:38.812Z,97215.38
2022-12-24T08:11:06.346Z,97240.41
2022-12-24T08:13:32.858Z,96962.56
2022-12-24T08:15:59.539Z,97185.06
2022-12-24T08:18:26.075Z,97246.44
2022-12-24T08:20:52.687Z,97229.19
2022-12-24T08:23:19.199Z,97199.72
2022-12-24T08:25:46.538Z,97239.53
2022-12-24T08:28:17.860Z,97231.78
2022-12-24T08:30:44.502Z,97266.44
2022-12-24T08:33:11.151Z,97216.88
2022-12-24T08:35:37.658Z,97298.50
2022-12-24T08:38:04.222Z,97199.63
2022-12-24T08:40:30.709Z,97050.22
2022-12-24T08:42:57.319Z,97223.88
2022-12-24T08:45:23.874Z,97217.66
2022-12-24T08:47:50.409Z,97277.38
2022-12-24T08:50:16.952Z,97241.00
2022-12-24T08:52:43.591Z,97276.53
2022-12-24T08:55:10.166Z,97284.09
2022-12-24T08:57:37.305Z,97246.94
2022-12-24T09:00:05.583Z,97268.41
2022-12-24T09:02:32.232Z,97260.59
2022-12-24T09:04:58.819Z,97295.97
2022-12-24T09:07:25.409Z,97306.22
2022-12-24T09:09:51.937Z,97249.22
2022-12-24T09:12:18.458Z,97248.00
2022-12-24T09:14:45.024Z,97088.69
2022-12-24T09:17:11.549Z,97138.81
2022-12-24T09:19:38.121Z,97330.09
2022-12-24T09:22:04.723Z,97222.25
2022-12-24T09:24:31.370Z,97274.03
2022-12-24T09:26:58.333Z,97347.66
2022-12-24T09:29:25.287Z,97315.47
2022-12-24T09:31:51.921Z,97233.97
2022-12-24T09:34:18.530Z,97293.69
2022-12-24T09:36:46.232Z,97234.38
2022-12-24T09:39:13.007Z,97251.91
2022-12-24T09:41:45.445Z,97402.91
2022-12-24T09:44:25.417Z,97373.28
2022-12-24T09:46:52.052Z,97402.91
2022-12-24T09:49:20.560Z,97292.72
2022-12-24T09:51:53.155Z,97178.97
2022-12-24T09:54:25.768Z,97094.94
2022-12-24T09:56:52.314Z,97360.75
2022-12-24T09:59:23.338Z,97325.13
2022-12-24T10:01:51.747Z,97328.66
2022-12-24T10:04:20.746Z,97294.03
2022-12-24T10:07:09.570Z,97440.28
2022-12-24T10:09:38.924Z,97429.22
2022-12-24T10:12:23.741Z,97435.19
2022-12-24T10:15:15.425Z,97359.75
2022-12-24T10:18:00.113Z,97433.50
2022-12-24T10:20:37.438Z,97327.28
2022-12-24T10:23:13.036Z,97433.63
2022-12-24T10:26:06.505Z,97353.88
2022-12-24T10:28:58.889Z,97386.97
2022-12-24T10:31:31.295Z,97350.28
2022-12-24T10:34:02.251Z,97214.09
2022-12-24T10:36:29.777Z,97339.88
2022-12-24T10:38:56.403Z,97381.34
2022-12-24T10:41:23.406Z,97320.91
2022-12-24T10:43:49.977Z,97401.47
2022-12-24T10:46:23.485Z,97432.75
2022-12-24T10:49:01.757Z,97262.09
2022-12-24T10:51:54.234Z,97433.63
2022-12-24T10:54:26.975Z,97294.75
2022-12-24T10:56:58.634Z,97372.78
2022-12-24T10:59:28.129Z,97429.31
2022-12-24T11:01:55.528Z,97318.22
2022-12-24T11:04:25.160Z,97253.28
2022-12-24T11:06:56.349Z,97293.97
2022-12-24T11:09:27.216Z,97214.34
2022-12-24T11:11:54.573Z,97147.00
2022-12-24T11:14:21.321Z,97287.00
2022-12-24T11:16:49.940Z,97356.44
2022-12-24T11:19:18.508Z,97386.84
2022-12-24T11:21:45.141Z,97429.25
2022-12-24T11:24:23.794Z,97425.91
2022-12-24T11:26:50.487Z,97338.81
2022-12-24T11:29:24.743Z,97431.75
2022-12-24T11:31:52.754Z,97368.41
2022-12-24T11:34:26.411Z,97429.31
2022-12-24T11:36:53.717Z,97427.63
2022-12-24T11:39:29.244Z,97143.94
2022-12-24T11:41:55.768Z,97406.59
2022-12-24T11:44:26.703Z,97423.31
2022-12-24T11:46:56.807Z,97385.34
2022-12-24T11:49:30.234Z,97414.00
2022-12-24T11:52:12.027Z,97409.78
2022-12-24T11:55:18.361Z,97395.78
2022-12-24T11:58:40.470Z,97360.47
2022-12-24T12:01:16.283Z,97400.38
2022-12-24T12:03:48.178Z,97304.00
2022-12-24T12:06:24.087Z,97402.00
2022-12-24T12:08:51.071Z,97293.66
2022-12-24T12:11:17.672Z,97329.16
2022-12-24T12:13:44.320Z,97336.97
2022-12-24T12:16:28.910Z,97395.25
2022-12-24T12:19:05.647Z,97315.19
2022-12-24T12:21:41.461Z,97392.44
2022-12-24T12:24:13.329Z,97303.88
2022-12-24T12:26:39.823Z,97398.88
2022-12-24T12:29:24.953Z,97432.75
2022-12-24T12:31:55.398Z,97225.44
2022-12-24T12:34:36.736Z,97350.19
2022-12-24T12:37:20.257Z,97147.31
2022-12-24T12:39:46.805Z,97253.72
2022-12-24T12:42:19.435Z,97440.41
2022-12-24T12:44:52.023Z,97229.53
2022-12-24T12:47:52.376Z,97429.34
2022-12-24T12:50:58.937Z,97358.94
2022-12-24T12:53:35.668Z,97194.31
2022-12-24T12:56:20.483Z,97432.78
2022-12-24T12:59:04.813Z,97215.53
2022-12-24T13:01:39.598Z,97323.47
2022-12-24T13:04:11.076Z,97437.88
2022-12-24T13:06:52.885Z,97432.78
2022-12-24T13:09:53.065Z,97433.66
2022-12-24T13:12:38.340Z,97438.78
2022-12-24T13:15:14.160Z,97439.63
2022-12-24T13:17:43.650Z,97441.31
2022-12-24T13:20:29.837Z,97443.88
2022-12-24T13:23:01.305Z,97278.84
2022-12-24T13:25:51.008Z,97316.13
2022-12-24T13:28:23.466Z,97456.63
2022-12-24T13:30:50.875Z,97197.09
2022-12-24T13:33:35.771Z,97463.41
2022-12-24T13:36:03.760Z,97465.97
2022-12-24T13:38:32.681Z,97205.50
2022-12-24T13:41:38.702Z,97472.78
2022-12-24T13:44:07.096Z,97467.69
2022-12-24T13:46:58.615Z,97470.25
2022-12-24T13:49:28.224Z,97477.06
2022-12-24T13:52:22.608Z,97484.72
2022-12-24T13:54:55.239Z,97470.19
2022-12-24T13:57:40.157Z,97192.72
2022-12-24T14:00:13.099Z,97471.13
2022-12-24T14:02:55.449Z,97335.81
2022-12-24T14:05:31.021Z,97391.78
2022-12-24T14:07:57.726Z,97255.31
2022-12-24T14:10:30.289Z,97216.84
2022-12-24T14:12:56.835Z,97388.50
2022-12-24T14:15:51.699Z,97476.16
2022-12-24T14:18:23.820Z,97332.94
2022-12-24T14:20:55.316Z,97416.13
2022-12-24T14:23:45.317Z,97465.81
2022-12-24T14:26:18.257Z,97426.44
2022-12-24T14:29:16.480Z,97474.44
2022-12-24T14:31:55.496Z,97294.00
2022-12-24T14:34:22.789Z,97303.75
2022-12-24T14:36:50.167Z,97446.31
2022-12-24T14:39:30.738Z,97497.38
2022-12-24T14:42:06.161Z,97214.53
2022-12-24T14:45:06.914Z,97483.84
2022-12-24T14:48:01.426Z,97504.13
2022-12-24T14:50:40.908Z,97497.38
2022-12-24T14:53:34.149Z,97506.63
2022-12-24T14:56:08.972Z,97446.69
2022-12-24T14:58:40.186Z,97356.09
2022-12-24T15:01:24.445Z,97521.13
2022-12-24T15:04:09.894Z,97306.78
2022-12-24T15:06:53.346Z,97400.84
2022-12-24T15:09:21.065Z,97409.38
2022-12-24T15:11:48.938Z,97390.78
2022-12-24T15:14:15.625Z,97264.31
2022-12-24T15:16:42.306Z,97358.75
2022-12-24T15:19:26.940Z,97441.97
2022-12-24T15:21:54.059Z,97240.69
2022-12-24T15:24:45.503Z,97429.72
2022-12-24T15:27:17.414Z,97353.94
2022-12-24T15:29:45.111Z,97343.69
2022-12-24T15:32:16.275Z,97452.22
2022-12-24T15:34:47.289Z,97488.88
2022-12-24T15:37:21.743Z,97369.16
2022-12-24T15:39:55.717Z,97513.97
2022-12-24T15:42:22.748Z,97356.16
2022-12-24T15:45:12.675Z,97530.50
2022-12-24T15:47:52.540Z,97530.50
2022-12-24T15:50:29.868Z,97436.47
2022-12-24T15:53:20.197Z,97285.72
2022-12-24T15:55:47.824Z,97388.94
2022-12-24T15:58:25.698Z,97331.44
2022-12-24T16:01:02.384Z,97428.47
2022-12-24T16:03:29.130Z,97288.78
2022-12-24T16:06:00.465Z,97422.56
2022-12-24T16:08:29.667Z,97513.53
2022-12-24T16:11:05.261Z,97554.25
2022-12-24T16:13:33.484Z,97387.69
2022-12-24T16:16:00.999Z,97541.44
2022-12-24T16:18:38.813Z,97333.72
2022-12-24T16:21:05.750Z,97544.00
2022-12-24T16:23:53.287Z,97545.69
2022-12-24T16:26:20.236Z,97440.41
2022-12-24T16:28:46.833Z,97458.41
2022-12-24T16:31:18.029Z,97308.97
2022-12-24T16:33:45.346Z,97298.91
2022-12-24T16:36:12.022Z,97450.38
2022-12-24T16:38:56.939Z,97574.66
2022-12-24T16:41:23.550Z,97442.69
2022-12-24T16:43:50.208Z,97391.38
2022-12-24T16:46:16.865Z,97439.03
2022-12-24T16:48:46.469Z,97529.28
2022-12-24T16:51:13.004Z,97315.41
2022-12-24T16:53:39.625Z,97383.06
2022-12-24T16:56:06.720Z,97543.47
2022-12-24T16:58:33.616Z,97428.84
2022-12-24T17:01:06.766Z,97504.56
2022-12-24T17:03:33.712Z,97250.63
2022-12-24T17:06:01.811Z,97605.28
2022-12-24T17:08:28.495Z,97479.25
2022-12-24T17:10:55.054Z,97545.00
2022-12-24T17:13:21.611Z,97545.09
2022-12-24T17:15:48.301Z,97560.63
2022-12-24T17:18:15.120Z,97420.81
2022-12-24T17:20:41.641Z,97349.94
2022-12-24T17:23:08.299Z,97406.31
2022-12-24T17:25:36.046Z,97431.28
2022-12-24T17:28:02.700Z,97374.19
2022-12-24T17:30:29.222Z,97366.31
2022-12-24T17:32:55.891Z,97493.38
2022-12-24T17:35:22.510Z,97263.56
2022-12-24T17:37:49.140Z,97555.41
2022-12-24T17:40:15.768Z,97379.44
2022-12-24T17:42:43.633Z,97546.41
2022-12-24T17:45:10.506Z,97538.88
2022-12-24T17:47:37.028Z,97520.63
2022-12-24T17:50:03.830Z,97531.75
2022-12-24T17:52:30.359Z,97478.78
2022-12-24T17:54:56.906Z,97389.50
2022-12-24T17:57:23.553Z,97330.56
2022-12-24T17:59:50.250Z,97445.53
2022-12-24T18:02:16.939Z,97422.72
2022-12-24T18:04:43.797Z,97501.34
2022-12-24T18:07:10.293Z,97440.53
2022-12-24T18:09:36.853Z,97609.59
2022-12-24T18:12:03.800Z,97583.63
2022-12-24T18:14:30.357Z,97341.38
2022-12-24T18:16:57.091Z,97399.53
2022-12-24T18:19:23.851Z,97639.59
2022-12-24T18:21:50.420Z,97420.25
2022-12-24T18:24:18.157Z,97437.66
2022-12-24T18:26:45.881Z,97482.59
2022-12-24T18:29:12.704Z,97459.19
2022-12-24T18:31:39.315Z,97545.25
2022-12-24T18:34:07.159Z,97496.69
2022-12-24T18:36:34.238Z,97355.28
2022-12-24T18:39:01.195Z,97406.28
2022-12-24T18:41:31.953Z,97563.16
2022-12-24T18:43:58.940Z,97533.72
2022-12-24T18:46:27.161Z,97374.88
2022-12-24T18:48:54.490Z,97575.59
2022-12-24T18:51:24.918Z,97615.56
2022-12-24T18:53:51.520Z,97518.50
2022-12-24T18:56:20.463Z,97504.34
2022-12-24T18:58:47.055Z,97579.56
2022-12-24T19:01:19.048Z,97562.94
2022-12-24T19:03:45.873Z,97273.97
2022-12-24T19:06:12.406Z,97578.56
2022-12-24T19:11:25.902Z,97623.59
2022-12-24T19:13:53.197Z,97496.28
2022-12-24T19:16:20.121Z,97535.31
2022-12-24T19:18:46.781Z,97566.34
2022-12-24T19:21:13.953Z,97557.84
2022-12-24T19:23:40.766Z,97379.72
2022-12-24T19:26:07.439Z,97507.78
2022-12-24T19:28:34.233Z,97629.94
2022-12-24T19:31:09.243Z,97582.16
2022-12-24T19:33:46.135Z,97468.31
2022-12-24T19:36:15.083Z,97594.31
2022-12-24T19:38:43.321Z,97300.91
2022-12-24T19:41:15.535Z,97585.69
2022-12-24T19:43:43.589Z,97393.03
2022-12-24T19:46:12.617Z,97456.81
2022-12-24T19:48:39.711Z,97458.66
2022-12-24T19:51:08.369Z,97514.03
2022-12-24T19:53:35.464Z,97602.44
2022-12-24T19:56:02.430Z,97405.28
2022-12-24T19:58:29.192Z,97409.00
2022-12-24T20:00:55.972Z,97586.50
2022-12-24T20:03:22.793Z,97625.91
2022-12-24T20:05:49.781Z,97537.28
2022-12-24T20:08:16.693Z,97500.84
2022-12-24T20:10:46.597Z,97258.75
2022-12-24T20:15:53.807Z,97530.78
2022-12-24T20:18:20.455Z,97486.56
2022-12-24T20:20:47.019Z,97142.19
2022-12-24T20:23:13.721Z,97051.44
2022-12-24T20:25:40.469Z,97018.75
2022-12-24T20:28:07.122Z,96887.97
2022-12-24T20:30:36.985Z,97560.13
2022-12-24T20:33:03.788Z,97108.41
2022-12-24T20:35:30.460Z,96613.19
2022-12-24T20:37:57.092Z,97538.75
2022-12-24T20:40:23.730Z,96816.78
2022-12-24T20:42:53.394Z,97075.53
2022-12-24T20:45:21.685Z,97150.22
2022-12-24T20:47:49.867Z,96505.22
2022-12-24T20:50:25.344Z,97470.53
2022-12-24T20:52:52.314Z,97100.75
2022-12-24T20:55:25.493Z,96474.06
2022-12-24T20:57:59.930Z,97593.09
2022-12-24T21:00:29.741Z,97120.72
2022-12-24T21:05:37.698Z,96674.56
2022-12-24T21:08:07.096Z,97094.72
2022-12-24T21:10:43.224Z,97484.94
2022-12-24T21:13:16.075Z,97132.78
2022-12-24T21:15:42.905Z,96752.81
2022-12-24T21:18:31.166Z,97461.03
2022-12-24T21:20:57.998Z,96891.03
2022-12-24T21:23:24.767Z,97077.97
2022-12-24T21:26:09.147Z,97041.03
2022-12-24T21:28:38.400Z,96801.41
2022-12-24T21:31:13.346Z,96818.47
2022-12-24T21:33:49.261Z,97048.81
2022-12-24T21:36:19.154Z,97565.56
2022-12-24T21:38:45.917Z,97111.56
2022-12-24T21:41:15.846Z,96673.25
2022-12-24T21:43:43.070Z,97369.44
2022-12-24T21:46:22.247Z,96804.19
2022-12-24T21:49:17.109Z,97077.28
2022-12-24T21:51:48.989Z,96889.78
2022-12-24T21:54:27.527Z,97403.03
2022-12-24T21:57:15.992Z,97139.13
2022-12-24T21:59:45.445Z,97125.19
2022-12-24T22:02:17.367Z,96836.50
2022-12-24T22:04:44.473Z,96835.06
2022-12-24T22:07:47.632Z,97082.78
2022-12-24T22:13:23.533Z,97116.06
2022-12-24T22:15:51.487Z,96946.13
2022-12-24T22:18:25.989Z,96527.91
2022-12-24T22:20:58.440Z,97093.75
2022-12-24T22:23:31.132Z,97104.63
2022-12-24T22:25:57.889Z,96756.59
2022-12-24T22:28:27.752Z,97113.03
2022-12-24T22:30:55.182Z,96578.41
2022-12-24T22:33:25.529Z,97098.50
2022-12-24T22:35:55.406Z,96883.84
2022-12-24T22:38:22.142Z,97071.97
2022-12-24T22:40:49.629Z,97146.16
2022-12-24T22:43:21.979Z,97074.88
2022-12-24T22:45:51.471Z,96752.19
2022-12-24T22:48:18.752Z,97136.25
2022-12-24T22:50:56.068Z,97411.63
2022-12-24T22:53:23.125Z,96863.41
2022-12-24T22:56:02.688Z,96960.09
2022-12-24T22:58:33.470Z,97144.44
2022-12-24T23:01:09.166Z,96937.81
2022-12-24T23:03:36.027Z,97045.69
2022-12-24T23:06:04.421Z,96696.31
2022-12-24T23:08:32.326Z,96731.66
2022-12-24T23:11:17.331Z,97341.66
2022-12-24T23:14:08.266Z,96639.59
2022-12-24T23:16:35.197Z,97347.38
2022-12-24T23:19:05.778Z,96934.06
2022-12-24T23:21:32.589Z,96717.38
2022-12-24T23:24:00.272Z,96889.03
2022-12-24T23:26:29.725Z,97255.88
2022-12-24T23:28:56.669Z,96653.19
2022-12-24T23:31:37.210Z,97533.34
2022-12-24T23:34:04.200Z,96816.69
2022-12-24T23:36:34.124Z,96845.19
2022-12-24T23:39:10.200Z,96851.34
2022-12-24T23:41:37.048Z,97036.44
2022-12-24T23:44:04.133Z,97114.50
2022-12-24T23:46:38.816Z,96476.44
2022-12-24T23:49:06.032Z,97163.66
2022-12-24T23:51:35.112Z,96886.59
2022-12-24T23:54:04.810Z,96738.19
2022-12-24T23:56:31.776Z,96812.06
2022-12-24T23:58:58.581Z,97419.31
